createdAt,value
2023-04-07T00:03:11.030Z,22.606
2023-04-07T00:18:12.857Z,22.663
2023-04-07T00:33:14.716Z,23.661
2023-04-07T00:48:16.501Z,24.233
2023-04-07T01:03:18.715Z,24.325
2023-04-07T01:18:20.715Z,24.336
2023-04-07T01:33:22.693Z,24.09
2023-04-07T01:48:24.467Z,23.694
2023-04-07T02:03:26.354Z,23.358
2023-04-07T02:18:28.321Z,23.314
2023-04-07T02:33:30.116Z,23.488
2023-04-07T02:48:31.895Z,23.905
2023-04-07T03:03:33.723Z,24.222
2023-04-07T03:18:36.690Z,23.943
2023-04-07T03:33:38.442Z,23.833
2023-04-07T03:48:40.181Z,24.031
2023-04-07T04:03:42.075Z,23.483
2023-04-07T04:18:43.933Z,23.761
2023-04-07T04:33:45.679Z,23.543
2023-04-07T04:48:47.369Z,23.731
2023-04-07T05:18:50.930Z,23.023
2023-04-07T05:33:53.117Z,23.257
2023-04-07T05:48:55.179Z,23.449
2023-04-07T06:03:57.078Z,23.277
2023-04-07T06:18:58.847Z,22.441
2023-04-07T06:34:00.602Z,22.403
2023-04-07T06:49:02.365Z,22.323
2023-04-07T07:04:04.216Z,22.411
2023-04-07T07:19:06.040Z,22.491
2023-04-07T07:34:07.795Z,22.272
2023-04-07T07:49:09.512Z,22.3
2023-04-07T08:04:11.429Z,22.506
2023-04-07T08:19:13.425Z,22.382
2023-04-07T08:34:15.181Z,22.464
2023-04-07T08:49:16.913Z,22.548
2023-04-07T09:04:18.751Z,22.453
2023-04-07T09:19:20.667Z,22.349
2023-04-07T09:34:22.413Z,22.918
2023-04-07T09:49:24.140Z,22.27
2023-04-07T10:04:25.927Z,21.91
2023-04-07T10:19:27.733Z,21.728
2023-04-07T10:34:29.498Z,21.832
2023-04-07T10:49:31.240Z,21.806
2023-04-07T11:04:33.165Z,21.939
2023-04-07T11:19:36.350Z,22.437
2023-04-07T11:34:38.139Z,22.416
2023-04-07T11:49:39.877Z,21.625
2023-04-07T12:04:41.841Z,21.575
2023-04-07T12:19:43.614Z,21.53
2023-04-07T12:34:45.337Z,21.667
2023-04-07T12:49:49.278Z,21.858
2023-04-07T13:04:51.785Z,21.623
2023-04-07T13:19:54.248Z,21.355
2023-04-07T13:34:56.132Z,21.648
2023-04-07T13:49:57.881Z,21.605
2023-04-07T14:04:59.623Z,22.039
2023-04-07T14:20:01.354Z,21.8
2023-04-07T14:35:03.086Z,21.385
2023-04-07T14:50:04.937Z,21.486
2023-04-07T15:05:06.722Z,22.506
2023-04-07T15:20:08.492Z,22.068
2023-04-07T15:35:10.260Z,21.715
2023-04-07T15:50:12.003Z,21.922
2023-04-07T16:05:13.804Z,22.074
2023-04-07T16:20:15.554Z,22.948
2023-04-07T16:35:17.299Z,23.173
2023-04-07T16:50:19.106Z,23.301
2023-04-07T17:05:20.879Z,22.576
2023-04-07T17:20:22.740Z,22.826
2023-04-07T17:35:24.566Z,23.151
2023-04-07T17:50:26.302Z,23.426
2023-04-07T18:05:28.046Z,23.75
2023-04-07T18:20:29.843Z,25.626
2023-04-07T18:35:31.627Z,26.608
2023-04-07T18:50:33.355Z,26.072
2023-04-07T19:05:35.091Z,25.611
2023-04-07T19:20:36.853Z,26.122
2023-04-07T19:35:38.640Z,25.69
2023-04-07T19:50:40.479Z,26.814
2023-04-07T20:05:42.254Z,26.924
2023-04-07T20:20:44.008Z,26.469
2023-04-07T20:35:45.759Z,26.332
2023-04-07T20:50:47.539Z,25.938
2023-04-07T21:05:49.302Z,25.984
2023-04-07T21:20:51.040Z,25.795
2023-04-07T21:35:52.887Z,26.133
2023-04-07T21:50:54.760Z,26.213
2023-04-07T22:05:56.489Z,25.852
2023-04-07T22:20:58.337Z,25.714
2023-04-07T22:36:00.177Z,25.855
2023-04-07T22:51:02.011Z,25.482
2023-04-07T23:06:03.747Z,25.581
2023-04-07T23:21:05.477Z,25.903
2023-04-07T23:36:07.282Z,26.326
2023-04-07T23:51:09.035Z,25.175
